createdAt,value
2023-04-11T00:00:41.518Z,99988.06
2023-04-11T00:03:15.044Z,99982.44
2023-04-11T00:05:45.807Z,99968.38
2023-04-11T00:08:19.034Z,99982.13
2023-04-11T00:10:52.007Z,99975.81
2023-04-11T00:13:24.080Z,99979.22
2023-04-11T00:15:56.749Z,99969.75
2023-04-11T00:18:30.422Z,99974.91
2023-04-11T00:21:02.893Z,99975.13
2023-04-11T00:23:35.829Z,99968.47
2023-04-11T00:26:06.568Z,99971.94
2023-04-11T00:28:37.198Z,99960.28
2023-04-11T00:34:49.345Z,99976.63
2023-04-11T00:37:24.614Z,99964.66
2023-04-11T00:40:00.030Z,99973.50
2023-04-11T00:42:30.475Z,99965.09
2023-04-11T00:45:00.758Z,99971.50
2023-04-11T00:47:31.243Z,99968.72
2023-04-11T00:50:06.026Z,99966.81
2023-04-11T00:52:37.634Z,99967.63
2023-04-11T00:55:15.752Z,99965.84
2023-04-11T00:57:47.264Z,99958.38
2023-04-11T01:00:18.874Z,99959.69
2023-04-11T01:02:51.527Z,99961.88
2023-04-11T01:05:22.361Z,99950.75
2023-04-11T01:07:56.070Z,99960.72
2023-04-11T01:10:33.563Z,99961.03
2023-04-11T01:13:04.359Z,99958.22
2023-04-11T01:15:34.808Z,99962.22
2023-04-11T01:18:06.021Z,99966.75
2023-04-11T01:20:36.424Z,99959.28
2023-04-11T01:23:08.817Z,99957.69
2023-04-11T01:25:41.722Z,99957.19
2023-04-11T01:28:13.059Z,99959.59
2023-04-11T01:30:43.691Z,99956.53
2023-04-11T01:33:14.458Z,99962.44
2023-04-11T01:35:45.738Z,99965.91
2023-04-11T01:38:16.340Z,99952.56
2023-04-11T01:40:49.823Z,99949.59
2023-04-11T01:43:20.285Z,99952.31
2023-04-11T01:45:50.699Z,99946.84
2023-04-11T01:48:21.350Z,99944.97
2023-04-11T01:50:53.267Z,99941.78
2023-04-11T01:53:23.543Z,99941.56
2023-04-11T01:55:56.433Z,99940.19
2023-04-11T01:58:26.712Z,99932.53
2023-04-11T02:00:56.994Z,99936.63
2023-04-11T02:03:29.816Z,99924.31
2023-04-11T02:06:04.026Z,99919.91
2023-04-11T02:08:37.039Z,99919.16
2023-04-11T02:11:11.137Z,99917.47
2023-04-11T02:13:41.863Z,99915.81
2023-04-11T02:16:18.493Z,99907.09
2023-04-11T02:18:50.150Z,99909.72
2023-04-11T02:21:21.182Z,99906.25
2023-04-11T02:23:51.690Z,99899.81
2023-04-11T02:26:27.052Z,99896.91
2023-04-11T02:28:57.778Z,99895.84
2023-04-11T02:31:28.688Z,99884.38
2023-04-11T02:33:59.082Z,99894.94
2023-04-11T02:36:30.249Z,99890.53
2023-04-11T02:39:00.845Z,99878.78
2023-04-11T02:41:33.714Z,99887.75
2023-04-11T02:44:03.968Z,99882.59
2023-04-11T02:46:34.302Z,99883.31
2023-04-11T02:49:05.453Z,99875.19
2023-04-11T02:51:36.087Z,99876.88
2023-04-11T02:54:06.571Z,99878.25
2023-04-11T02:56:39.998Z,99880.66
2023-04-11T02:59:10.476Z,99871.41
2023-04-11T03:01:41.098Z,99871.41
2023-04-11T03:04:11.959Z,99876.88
2023-04-11T03:06:42.296Z,99879.97
2023-04-11T03:09:12.630Z,99882.06
2023-04-11T03:11:47.317Z,99875.75
2023-04-11T03:14:18.886Z,99872.13
2023-04-11T03:16:49.101Z,99883.88
2023-04-11T03:19:19.457Z,99873.91
2023-04-11T03:21:49.676Z,99871.69
2023-04-11T03:24:19.970Z,99879.78
2023-04-11T03:26:52.869Z,99875.50
2023-04-11T03:29:26.333Z,99874.84
2023-04-11T03:31:56.578Z,99873.38
2023-04-11T03:34:26.932Z,99871.81
2023-04-11T03:36:57.219Z,99875.47
2023-04-11T03:39:28.158Z,99869.88
2023-04-11T03:42:02.072Z,99882.41
2023-04-11T03:44:32.558Z,99885.03
2023-04-11T03:47:02.997Z,99873.25
2023-04-11T03:49:33.409Z,99871.88
2023-04-11T03:52:03.797Z,99873.84
2023-04-11T03:54:34.080Z,99871.22
2023-04-11T03:57:07.482Z,99871.53
2023-04-11T03:59:37.890Z,99866.28
2023-04-11T04:02:08.537Z,99871.78
2023-04-11T04:04:40.699Z,99876.47
2023-04-11T04:07:11.049Z,99875.09
2023-04-11T04:09:42.039Z,99879.38
2023-04-11T04:12:15.142Z,99871.13
2023-04-11T04:14:45.610Z,99881.19
2023-04-11T04:17:16.922Z,99876.69
2023-04-11T04:19:47.337Z,99869.34
2023-04-11T04:22:17.961Z,99875.34
2023-04-11T04:24:49.228Z,99870.84
2023-04-11T04:27:22.005Z,99870.00
2023-04-11T04:29:57.335Z,99875.16
2023-04-11T04:32:34.856Z,99867.91
2023-04-11T04:35:05.195Z,99869.50
2023-04-11T04:37:39.788Z,99881.75
2023-04-11T04:40:13.544Z,99874.19
2023-04-11T04:42:50.050Z,99875.44
2023-04-11T04:45:20.612Z,99881.75
2023-04-11T04:47:50.824Z,99870.78
2023-04-11T04:50:21.503Z,99866.53
2023-04-11T04:52:51.850Z,99876.44
2023-04-11T04:55:22.222Z,99879.06
2023-04-11T04:57:55.155Z,99881.59
2023-04-11T05:00:25.651Z,99877.38
2023-04-11T05:02:56.948Z,99881.13
2023-04-11T05:05:27.311Z,99883.22
2023-04-11T05:07:57.558Z,99889.63
2023-04-11T05:10:27.898Z,99882.00
2023-04-11T05:13:01.052Z,99877.16
2023-04-11T05:15:31.420Z,99870.19
2023-04-11T05:18:03.012Z,99871.78
2023-04-11T05:20:34.941Z,99864.69
2023-04-11T05:23:05.916Z,99851.97
2023-04-11T05:25:36.342Z,99864.06
2023-04-11T05:28:09.346Z,99868.28
2023-04-11T05:30:41.716Z,99869.63
2023-04-11T05:33:13.155Z,99874.53
2023-04-11T05:35:45.086Z,99863.72
2023-04-11T05:38:15.824Z,99868.78
2023-04-11T05:40:46.491Z,99869.50
2023-04-11T05:43:19.961Z,99868.47
2023-04-11T05:45:51.027Z,99860.69
2023-04-11T05:48:21.810Z,99855.09
2023-04-11T05:50:53.438Z,99810.91
2023-04-11T05:53:27.185Z,99850.31
2023-04-11T05:55:57.583Z,99853.59
2023-04-11T05:58:32.103Z,99848.59
2023-04-11T06:01:07.473Z,99846.44
2023-04-11T06:03:39.123Z,99849.50
2023-04-11T06:06:11.033Z,99835.09
2023-04-11T06:08:41.945Z,99827.59
2023-04-11T06:11:12.609Z,99820.50
2023-04-11T06:13:45.599Z,99818.50
2023-04-11T06:16:16.003Z,99806.88
2023-04-11T06:18:46.420Z,99804.53
2023-04-11T06:21:19.032Z,99797.56
2023-04-11T06:23:49.808Z,99798.50
2023-04-11T06:26:20.215Z,99784.91
2023-04-11T06:28:54.976Z,99785.72
2023-04-11T06:31:25.728Z,99779.19
2023-04-11T06:33:56.522Z,99771.34
2023-04-11T06:36:27.924Z,99776.63
2023-04-11T06:38:58.286Z,99778.22
2023-04-11T06:41:29.305Z,99779.84
2023-04-11T06:44:02.609Z,99775.72
2023-04-11T06:46:35.934Z,99774.09
2023-04-11T06:49:07.432Z,99782.31
2023-04-11T06:51:38.087Z,99783.03
2023-04-11T06:54:08.712Z,99784.97
2023-04-11T06:56:39.146Z,99782.94
2023-04-11T06:59:12.797Z,99782.72
2023-04-11T07:01:45.115Z,99775.53
2023-04-11T07:04:15.537Z,99762.72
2023-04-11T07:06:48.187Z,99772.06
2023-04-11T07:09:19.006Z,99778.44
2023-04-11T07:11:51.001Z,99777.63
2023-04-11T07:14:23.964Z,99776.91
2023-04-11T07:16:56.791Z,99775.53
2023-04-11T07:19:27.056Z,99773.38
2023-04-11T07:21:57.539Z,99780.66
2023-04-11T07:24:32.466Z,99773.09
2023-04-11T07:27:04.999Z,99769.94
2023-04-11T07:29:37.894Z,99767.44
2023-04-11T07:32:10.448Z,99758.66
2023-04-11T07:34:40.816Z,99750.81
2023-04-11T07:37:12.778Z,99751.81
2023-04-11T07:39:44.623Z,99748.50
2023-04-11T07:42:14.979Z,99756.09
2023-04-11T07:44:48.072Z,99758.69
2023-04-11T07:47:19.670Z,99755.19
2023-04-11T07:49:50.429Z,99737.31
2023-04-11T07:52:20.721Z,99756.72
2023-04-11T07:54:51.207Z,99760.81
2023-04-11T07:57:21.450Z,99751.13
2023-04-11T07:59:58.489Z,99754.22
2023-04-11T08:02:28.865Z,99755.56
2023-04-11T08:04:59.652Z,99754.59
2023-04-11T08:07:29.922Z,99747.19
2023-04-11T08:10:02.258Z,99754.78
2023-04-11T08:12:32.662Z,99743.81
2023-04-11T08:15:07.232Z,99738.34
2023-04-11T08:17:38.822Z,99733.00
2023-04-11T08:20:12.974Z,99731.22
2023-04-11T08:22:47.042Z,99728.00
2023-04-11T08:25:19.928Z,99717.25
2023-04-11T08:27:50.884Z,99722.13
2023-04-11T08:30:23.985Z,99715.13
2023-04-11T08:32:55.645Z,99720.81
2023-04-11T08:35:28.032Z,99725.63
2023-04-11T08:37:58.440Z,99712.44
2023-04-11T08:40:31.501Z,99710.69
2023-04-11T08:43:02.810Z,99707.00
2023-04-11T08:45:36.202Z,99706.22
2023-04-11T08:48:06.672Z,99698.81
2023-04-11T08:50:37.322Z,99696.03
2023-04-11T08:53:08.798Z,99684.63
2023-04-11T08:55:47.924Z,99682.88
2023-04-11T08:58:18.190Z,99681.91
2023-04-11T09:00:51.265Z,99681.72
2023-04-11T09:03:21.570Z,99690.13
2023-04-11T09:05:52.225Z,99680.03
2023-04-11T09:08:22.625Z,99676.41
2023-04-11T09:10:52.885Z,99665.13
2023-04-11T09:13:24.456Z,99669.75
2023-04-11T09:16:16.707Z,99666.13
2023-04-11T09:18:48.851Z,99657.72
2023-04-11T09:21:22.180Z,99649.81
2023-04-11T09:23:53.287Z,99654.38
2023-04-11T09:26:32.698Z,99642.13
2023-04-11T09:29:06.041Z,99635.28
2023-04-11T09:31:47.038Z,99631.88
2023-04-11T09:34:28.104Z,99625.25
2023-04-11T09:37:03.830Z,99622.47
2023-04-11T09:39:37.362Z,99623.50
2023-04-11T09:42:26.505Z,99611.81
2023-04-11T09:45:00.151Z,99620.59
2023-04-11T09:47:37.858Z,99603.53
2023-04-11T09:50:13.944Z,99595.88
2023-04-11T09:52:47.893Z,99590.13
2023-04-11T09:55:22.753Z,99590.63
2023-04-11T09:57:54.933Z,99590.13
2023-04-11T10:00:31.370Z,99583.63
2023-04-11T10:03:04.661Z,99577.31
2023-04-11T10:05:35.830Z,99580.19
2023-04-11T10:08:11.443Z,99580.31
2023-04-11T10:10:41.928Z,99580.72
2023-04-11T10:13:42.424Z,99571.31
2023-04-11T10:16:15.025Z,99571.94
2023-04-11T10:19:18.110Z,99586.78
2023-04-11T10:21:52.745Z,99572.03
2023-04-11T10:24:26.838Z,99565.41
2023-04-11T10:26:58.393Z,99554.59
2023-04-11T10:29:51.750Z,99557.31
2023-04-11T10:32:26.866Z,99551.06
2023-04-11T10:35:27.347Z,99544.69
2023-04-11T10:38:01.040Z,99552.13
2023-04-11T10:40:35.609Z,99546.03
2023-04-11T10:43:22.575Z,99544.72
2023-04-11T10:46:25.268Z,99531.78
2023-04-11T10:49:03.738Z,99541.09
2023-04-11T10:51:36.316Z,99524.59
2023-04-11T10:54:07.069Z,99528.03
2023-04-11T10:56:58.896Z,99537.44
2023-04-11T10:59:59.550Z,99526.25
2023-04-11T11:02:42.473Z,99526.47
2023-04-11T11:05:24.112Z,99521.03
2023-04-11T11:08:00.635Z,99515.06
2023-04-11T11:10:47.483Z,99513.31
2023-04-11T11:13:19.429Z,99507.00
2023-04-11T11:15:51.470Z,99509.00
2023-04-11T11:18:25.795Z,99471.41
2023-04-11T11:21:01.564Z,99492.00
2023-04-11T11:23:32.751Z,99485.25
2023-04-11T11:26:08.720Z,99492.13
2023-04-11T11:28:49.897Z,99487.75
2023-04-11T11:31:24.769Z,99483.38
2023-04-11T11:34:18.492Z,99479.88
2023-04-11T11:36:53.380Z,99485.56
2023-04-11T11:39:24.744Z,99479.97
2023-04-11T11:41:57.613Z,99453.69
2023-04-11T11:44:29.512Z,99474.09
2023-04-11T11:47:12.688Z,99469.97
2023-04-11T11:49:50.112Z,99461.06
2023-04-11T11:52:36.972Z,99452.31
2023-04-11T11:55:11.382Z,99449.31
2023-04-11T11:57:48.024Z,99443.19
2023-04-11T12:00:26.595Z,99441.38
2023-04-11T12:02:59.935Z,99429.84
2023-04-11T12:05:35.236Z,99440.22
2023-04-11T12:08:07.645Z,99445.44
2023-04-11T12:10:43.119Z,99438.75
2023-04-11T12:13:19.792Z,99435.94
2023-04-11T12:15:55.038Z,99439.34
2023-04-11T12:18:26.516Z,99431.56
2023-04-11T12:20:59.550Z,99429.88
2023-04-11T12:23:31.853Z,99432.53
2023-04-11T12:26:02.995Z,99429.19
2023-04-11T12:28:33.271Z,99430.13
2023-04-11T12:31:03.708Z,99425.47
2023-04-11T12:33:34.071Z,99426.00
2023-04-11T12:36:09.842Z,99417.28
2023-04-11T12:38:40.170Z,99409.47
2023-04-11T12:41:31.017Z,99403.81
2023-04-11T12:44:02.670Z,99410.53
2023-04-11T12:46:33.963Z,99390.78
2023-04-11T12:49:04.564Z,99396.63
2023-04-11T12:51:37.760Z,99392.06
2023-04-11T12:54:08.656Z,99389.59
2023-04-11T12:56:42.479Z,99396.25
2023-04-11T12:59:15.364Z,99386.34
2023-04-11T13:01:47.160Z,99391.25
2023-04-11T13:04:19.189Z,99379.78
2023-04-11T13:06:54.242Z,99379.63
2023-04-11T13:09:25.845Z,99376.38
2023-04-11T13:11:56.394Z,99374.72
2023-04-11T13:14:26.944Z,99364.31
2023-04-11T13:16:57.528Z,99362.03
2023-04-11T13:19:31.412Z,99361.91
2023-04-11T13:22:05.733Z,99351.47
2023-04-11T13:24:36.093Z,99361.66
2023-04-11T13:27:12.138Z,99351.78
2023-04-11T13:29:43.215Z,99344.31
2023-04-11T13:32:14.039Z,99338.47
2023-04-11T13:34:45.114Z,99342.28
2023-04-11T13:37:18.061Z,99331.34
2023-04-11T13:39:50.417Z,99334.13
2023-04-11T13:42:24.039Z,99334.50
2023-04-11T13:44:55.208Z,99333.53
2023-04-11T13:47:26.176Z,99306.41
2023-04-11T13:49:56.921Z,99322.84
2023-04-11T13:52:30.152Z,99323.13
2023-04-11T13:55:00.477Z,99324.97
2023-04-11T13:57:31.462Z,99315.69
2023-04-11T14:00:02.012Z,99301.72
2023-04-11T14:02:33.461Z,99307.53
2023-04-11T14:05:05.178Z,99301.78
2023-04-11T14:07:40.339Z,99302.56
2023-04-11T14:20:41.114Z,99276.19
2023-04-11T14:23:16.803Z,99268.56
2023-04-11T14:25:47.056Z,99273.25
2023-04-11T14:28:17.841Z,99272.09
2023-04-11T14:30:49.144Z,99267.44
2023-04-11T14:33:19.558Z,99273.03
2023-04-11T14:36:07.779Z,99262.16
2023-04-11T14:38:42.435Z,99265.19
2023-04-11T14:41:14.796Z,99268.06
2023-04-11T14:43:45.221Z,99258.59
2023-04-11T14:46:15.905Z,99262.03
2023-04-11T14:48:47.761Z,99260.94
2023-04-11T14:51:20.942Z,99260.81
2023-04-11T14:53:55.618Z,99250.59
2023-04-11T14:56:26.188Z,99250.34
2023-04-11T14:58:58.331Z,99249.47
2023-04-11T15:01:28.899Z,99244.19
2023-04-11T15:04:02.050Z,99245.75
2023-04-11T15:06:32.764Z,99253.75
2023-04-11T15:09:06.525Z,99248.31
2023-04-11T15:11:36.802Z,99252.00
2023-04-11T15:14:07.136Z,99252.63
2023-04-11T15:16:37.328Z,99243.28
2023-04-11T15:19:09.846Z,99242.22
2023-04-11T15:21:42.325Z,99239.59
2023-04-11T15:24:17.171Z,99237.00
2023-04-11T15:26:47.624Z,99240.88
2023-04-11T15:29:20.646Z,99233.50
2023-04-11T15:31:51.282Z,99236.19
2023-04-11T15:34:23.930Z,99232.50
2023-04-11T15:36:54.886Z,99233.44
2023-04-11T15:39:28.275Z,99227.56
2023-04-11T15:41:58.902Z,99226.13
2023-04-11T15:44:29.126Z,99227.00
2023-04-11T15:46:59.483Z,99229.53
2023-04-11T15:49:30.567Z,99224.75
2023-04-11T15:52:01.229Z,99231.63
2023-04-11T15:54:34.546Z,99222.19
2023-04-11T15:57:07.543Z,99218.06
2023-04-11T15:59:41.927Z,99221.28
2023-04-11T16:02:12.290Z,99209.50
2023-04-11T16:04:46.369Z,99218.41
2023-04-11T16:07:19.562Z,99217.94
2023-04-11T16:09:55.442Z,99214.09
2023-04-11T16:12:25.923Z,99212.53
2023-04-11T16:14:58.928Z,99208.78
2023-04-11T16:17:34.618Z,99205.00
2023-04-11T16:20:08.843Z,99204.34
2023-04-11T16:22:40.878Z,99204.59
2023-04-11T16:25:14.914Z,99196.69
2023-04-11T16:27:47.680Z,99190.28
2023-04-11T16:30:19.900Z,99191.75
2023-04-11T16:32:50.930Z,99192.31
2023-04-11T16:35:21.398Z,99194.25
2023-04-11T16:37:51.696Z,99189.31
2023-04-11T16:40:24.776Z,99187.19
2023-04-11T16:42:54.995Z,99191.34
2023-04-11T16:45:32.169Z,99190.16
2023-04-11T16:48:02.757Z,99192.59
2023-04-11T16:50:33.139Z,99189.44
2023-04-11T16:53:03.395Z,99194.06
2023-04-11T16:55:36.291Z,99194.25
2023-04-11T16:58:07.126Z,99188.44
2023-04-11T17:00:38.348Z,99204.75
2023-04-11T17:03:08.833Z,99206.16
2023-04-11T17:05:39.397Z,99205.78
2023-04-11T17:08:09.765Z,99208.59
2023-04-11T17:10:45.024Z,99211.75
2023-04-11T17:13:18.294Z,99216.56
2023-04-11T17:15:48.590Z,99211.63
2023-04-11T17:18:21.875Z,99202.19
2023-04-11T17:20:52.827Z,99207.47
2023-04-11T17:23:35.426Z,99217.09
2023-04-11T17:26:17.836Z,99209.19
2023-04-11T17:28:49.048Z,99205.03
2023-04-11T17:31:20.694Z,99203.53
2023-04-11T17:33:51.175Z,99216.81
2023-04-11T17:36:22.767Z,99216.94
2023-04-11T17:38:57.030Z,99215.13
2023-04-11T17:41:31.691Z,99215.44
2023-04-11T17:44:01.984Z,99218.09
2023-04-11T17:46:32.822Z,99210.41
2023-04-11T17:49:03.424Z,99217.66
2023-04-11T17:51:34.148Z,99222.59
2023-04-11T17:57:20.072Z,99216.00
2023-04-11T17:59:51.579Z,99208.63
2023-04-11T18:02:26.575Z,99225.81
2023-04-11T18:04:58.040Z,99228.84
2023-04-11T18:07:29.137Z,99233.19
2023-04-11T18:10:08.750Z,99237.81
2023-04-11T18:12:51.593Z,99237.00
2023-04-11T18:15:24.281Z,99234.81
2023-04-11T18:17:56.175Z,99235.28
2023-04-11T18:20:31.187Z,99230.53
2023-04-11T18:23:03.790Z,99233.75
2023-04-11T18:25:35.805Z,99244.75
2023-04-11T18:28:14.815Z,99238.31
2023-04-11T18:30:46.085Z,99243.38
2023-04-11T18:33:18.880Z,99249.22
2023-04-11T18:35:50.210Z,99251.09
2023-04-11T18:38:20.923Z,99249.72
2023-04-11T18:40:55.097Z,99255.13
2023-04-11T18:43:28.985Z,99244.66
2023-04-11T18:45:59.294Z,99236.78
2023-04-11T18:48:31.131Z,99243.53
2023-04-11T18:51:06.077Z,99233.84
2023-04-11T18:53:37.184Z,99235.91
2023-04-11T18:56:08.974Z,99227.56
2023-04-11T18:58:45.700Z,99230.88
2023-04-11T19:04:28.259Z,99226.31
2023-04-11T19:07:02.062Z,99224.66
2023-04-11T19:09:33.159Z,99224.50
2023-04-11T19:12:03.741Z,99223.50
2023-04-11T19:14:43.274Z,99219.75
2023-04-11T19:17:15.377Z,99213.63
2023-04-11T19:19:48.670Z,99213.63
2023-04-11T19:22:19.131Z,99211.34
2023-04-11T19:24:50.768Z,99202.88
2023-04-11T19:27:21.859Z,99204.16
2023-04-11T19:29:55.472Z,99203.78
2023-04-11T19:32:26.842Z,99203.41
2023-04-11T19:34:58.934Z,99188.59
2023-04-11T19:37:30.171Z,99184.44
2023-04-11T19:40:01.678Z,99178.84
2023-04-11T19:42:37.009Z,99165.75
2023-04-11T19:45:12.849Z,99160.19
2023-04-11T19:47:43.772Z,99157.34
2023-04-11T19:50:17.977Z,99156.16
2023-04-11T19:52:48.382Z,99135.22
2023-04-11T19:55:19.002Z,99138.84
2023-04-11T19:57:49.441Z,99130.25
2023-04-11T20:00:25.416Z,99123.81
2023-04-11T20:02:57.362Z,99124.25
2023-04-11T20:05:33.337Z,99125.75
2023-04-11T20:08:03.846Z,99119.41
2023-04-11T20:14:17.173Z,99104.69
2023-04-11T20:16:50.442Z,99107.63
2023-04-11T20:19:21.453Z,99101.72
2023-04-11T20:21:53.052Z,99106.78
2023-04-11T20:24:24.129Z,99113.66
2023-04-11T20:26:57.122Z,99112.00
2023-04-11T20:29:33.051Z,99107.25
2023-04-11T20:32:06.211Z,99106.34
2023-04-11T20:38:00.844Z,99106.66
2023-04-11T20:40:31.824Z,99088.44
2023-04-11T20:46:13.882Z,99087.88
2023-04-11T20:48:47.427Z,99088.41
2023-04-11T20:51:18.758Z,99087.81
2023-04-11T20:53:49.160Z,99088.41
2023-04-11T20:56:19.664Z,99090.53
2023-04-11T20:58:49.980Z,99094.28
2023-04-11T21:01:21.334Z,99081.91
2023-04-11T21:03:57.801Z,99085.56
2023-04-11T21:06:29.313Z,99079.84
2023-04-11T21:12:43.921Z,99085.06
2023-04-11T21:15:14.796Z,99076.94
2023-04-11T21:17:49.008Z,99075.13
2023-04-11T21:20:22.805Z,99070.19
2023-04-11T21:22:55.830Z,99070.53
2023-04-11T21:25:26.903Z,99064.84
2023-04-11T21:27:58.259Z,99071.97
2023-04-11T21:30:30.823Z,99067.06
2023-04-11T21:33:03.369Z,99047.41
2023-04-11T21:35:36.516Z,99065.75
2023-04-11T21:38:07.145Z,99065.03
2023-04-11T21:40:37.826Z,99057.47
2023-04-11T21:43:08.724Z,99056.59
2023-04-11T21:45:39.406Z,99057.28
2023-04-11T21:48:09.763Z,99060.72
2023-04-11T21:50:43.126Z,99064.69
2023-04-11T22:00:29.460Z,99033.59
2023-04-11T22:03:02.153Z,99031.69
2023-04-11T22:05:32.882Z,99029.19
2023-04-11T22:08:14.953Z,99022.34
2023-04-11T22:10:48.575Z,99019.22
2023-04-11T22:13:20.694Z,99015.69
2023-04-11T22:15:58.599Z,99008.16
2023-04-11T22:18:29.435Z,99013.19
2023-04-11T22:21:03.250Z,99020.50
2023-04-11T22:23:36.321Z,99027.31
2023-04-11T22:26:06.646Z,99030.47
2023-04-11T22:28:38.322Z,99037.06
2023-04-11T22:31:09.895Z,99032.91
2023-04-11T22:33:40.204Z,99032.09
2023-04-11T22:36:12.672Z,99026.78
2023-04-11T22:38:47.924Z,99024.50
2023-04-11T22:41:18.984Z,99031.16
2023-04-11T22:43:49.247Z,99020.19
2023-04-11T22:46:19.570Z,99037.38
2023-04-11T22:48:49.849Z,99048.44
2023-04-11T22:51:22.158Z,99048.03
2023-04-11T22:53:55.687Z,99043.88
2023-04-11T22:56:26.231Z,99049.13
2023-04-11T22:58:57.459Z,99056.09
2023-04-11T23:04:39.339Z,99054.19
2023-04-11T23:07:15.091Z,99050.47
2023-04-11T23:09:48.336Z,99050.06
